createdAt,value
2023-02-27T00:01:20.228Z,-2.60
2023-02-27T00:03:46.915Z,-2.60
2023-02-27T00:06:13.653Z,-2.60
2023-02-27T00:08:40.305Z,-2.60
2023-02-27T00:11:07.025Z,-2.70
2023-02-27T00:13:33.700Z,-2.70
2023-02-27T00:16:00.443Z,-2.70
2023-02-27T00:18:30.063Z,-2.70
2023-02-27T00:20:56.735Z,-2.70
2023-02-27T00:23:24.462Z,-2.70
2023-02-27T00:25:52.195Z,-2.70
2023-02-27T00:28:18.824Z,-2.70
2023-02-27T00:30:45.551Z,-2.60
2023-02-27T00:33:12.274Z,-2.70
2023-02-27T00:35:45.238Z,-2.80
2023-02-27T00:38:11.934Z,-2.80
2023-02-27T00:40:38.691Z,-2.80
2023-02-27T00:43:06.999Z,-2.80
2023-02-27T00:45:33.631Z,-2.90
2023-02-27T00:48:02.612Z,-3.00
2023-02-27T00:50:29.311Z,-2.90
2023-02-27T00:52:55.937Z,-3.00
2023-02-27T00:55:22.569Z,-3.00
2023-02-27T00:57:49.237Z,-3.00
2023-02-27T01:00:16.424Z,-3.00
2023-02-27T01:02:43.100Z,-2.90
2023-02-27T01:05:10.258Z,-2.90
2023-02-27T01:07:40.291Z,-2.90
2023-02-27T01:10:08.543Z,-2.80
2023-02-27T01:12:35.838Z,-2.80
2023-02-27T01:15:03.544Z,-2.70
2023-02-27T01:17:30.506Z,-2.80
2023-02-27T01:19:57.188Z,-2.80
2023-02-27T01:22:24.640Z,-2.90
2023-02-27T01:24:51.553Z,-2.90
2023-02-27T01:27:18.392Z,-2.90
2023-02-27T01:29:45.048Z,-2.80
2023-02-27T01:32:14.915Z,-2.70
2023-02-27T01:34:41.663Z,-2.80
2023-02-27T01:37:08.485Z,-2.70
2023-02-27T01:39:36.586Z,-2.70
2023-02-27T01:42:05.907Z,-2.60
2023-02-27T01:45:01.722Z,-2.50
2023-02-27T01:47:28.595Z,-2.50
2023-02-27T01:49:55.743Z,-2.60
2023-02-27T01:52:22.658Z,-2.60
2023-02-27T01:54:51.423Z,-2.60
2023-02-27T01:57:18.180Z,-2.60
2023-02-27T01:59:44.814Z,-2.60
2023-02-27T02:02:23.462Z,-2.60
2023-02-27T02:04:54.254Z,-2.50
2023-02-27T02:07:21.914Z,-2.50
2023-02-27T02:09:54.623Z,-2.60
2023-02-27T02:12:25.236Z,-2.60
2023-02-27T02:14:51.934Z,-2.70
2023-02-27T02:17:50.093Z,-2.70
2023-02-27T02:20:46.087Z,-2.70
2023-02-27T02:23:30.734Z,-2.70
2023-02-27T02:26:03.197Z,-2.70
2023-02-27T02:29:03.567Z,-2.70
2023-02-27T02:31:59.001Z,-2.80
2023-02-27T02:35:05.149Z,-2.70
2023-02-27T02:37:56.579Z,-2.70
2023-02-27T02:40:53.708Z,-2.60
2023-02-27T02:43:30.457Z,-2.70
2023-02-27T02:46:30.944Z,-2.70
2023-02-27T02:49:19.576Z,-2.90
2023-02-27T02:52:08.855Z,-3.00
2023-02-27T02:55:03.625Z,-3.00
2023-02-27T02:57:57.115Z,-3.00
2023-02-27T03:00:36.965Z,-3.10
2023-02-27T03:03:14.124Z,-3.10
2023-02-27T03:05:58.937Z,-3.00
2023-02-27T03:08:33.496Z,-3.00
2023-02-27T03:11:03.838Z,-3.00
2023-02-27T03:13:54.116Z,-3.00
2023-02-27T03:16:36.362Z,-2.90
2023-02-27T03:19:33.372Z,-2.90
2023-02-27T03:22:05.411Z,-2.90
2023-02-27T03:24:35.151Z,-2.80
2023-02-27T03:27:03.099Z,-2.80
2023-02-27T03:30:00.457Z,-2.80
2023-02-27T03:32:47.832Z,-2.80
2023-02-27T03:35:14.947Z,-2.70
2023-02-27T03:38:09.223Z,-2.80
2023-02-27T03:41:00.905Z,-2.80
2023-02-27T03:43:38.663Z,-2.80
2023-02-27T03:46:17.030Z,-2.80
2023-02-27T03:48:45.376Z,-2.80
2023-02-27T03:51:19.099Z,-2.90
2023-02-27T03:54:05.136Z,-2.90
2023-02-27T03:56:55.808Z,-2.80
2023-02-27T03:59:24.665Z,-2.70
2023-02-27T04:01:53.190Z,-2.70
2023-02-27T04:04:19.946Z,-2.80
2023-02-27T04:07:12.685Z,-2.80
2023-02-27T04:10:19.362Z,-2.80
2023-02-27T04:12:52.025Z,-2.90
2023-02-27T04:15:30.460Z,-2.90
2023-02-27T04:18:19.184Z,-2.90
2023-02-27T04:21:01.257Z,-2.90
2023-02-27T04:23:49.824Z,-2.90
2023-02-27T04:26:37.940Z,-3.00
2023-02-27T04:29:27.961Z,-3.00
2023-02-27T04:32:25.745Z,-3.00
2023-02-27T04:34:57.347Z,-3.10
2023-02-27T04:37:37.769Z,-3.10
2023-02-27T04:40:10.431Z,-3.10
2023-02-27T04:42:47.254Z,-3.20
2023-02-27T04:45:18.469Z,-3.20
2023-02-27T04:47:53.470Z,-3.30
2023-02-27T04:50:30.167Z,-3.30
2023-02-27T04:53:04.676Z,-3.30
2023-02-27T04:55:35.992Z,-3.30
2023-02-27T04:58:17.891Z,-3.40
2023-02-27T05:00:51.631Z,-3.50
2023-02-27T05:03:28.716Z,-3.60
2023-02-27T05:05:58.821Z,-3.70
2023-02-27T05:08:51.158Z,-3.70
2023-02-27T05:11:43.299Z,-3.70
2023-02-27T05:14:15.500Z,-3.70
2023-02-27T05:16:59.687Z,-3.80
2023-02-27T05:19:26.741Z,-3.70
2023-02-27T05:22:08.896Z,-3.80
2023-02-27T05:24:59.812Z,-3.80
2023-02-27T05:27:46.878Z,-3.80
2023-02-27T05:30:19.333Z,-3.80
2023-02-27T05:32:56.876Z,-3.90
2023-02-27T05:35:37.250Z,-3.90
2023-02-27T05:38:15.844Z,-3.90
2023-02-27T05:40:48.036Z,-3.90
2023-02-27T05:43:18.996Z,-4.00
2023-02-27T05:45:48.973Z,-4.00
2023-02-27T05:48:24.253Z,-4.10
2023-02-27T05:50:55.061Z,-4.00
2023-02-27T05:53:24.993Z,-4.00
2023-02-27T05:55:54.790Z,-4.00
2023-02-27T05:58:33.112Z,-3.90
2023-02-27T06:01:02.633Z,-3.90
2023-02-27T06:03:32.284Z,-3.80
2023-02-27T06:06:02.332Z,-3.80
2023-02-27T06:08:29.662Z,-3.80
2023-02-27T06:10:56.603Z,-3.80
2023-02-27T06:13:24.183Z,-3.70
2023-02-27T06:15:50.897Z,-3.60
2023-02-27T06:18:18.470Z,-3.50
2023-02-27T06:20:45.875Z,-3.50
2023-02-27T06:23:13.086Z,-3.50
2023-02-27T06:25:42.096Z,-3.40
2023-02-27T06:28:09.410Z,-3.40
2023-02-27T06:30:36.565Z,-3.40
2023-02-27T06:33:06.430Z,-3.40
2023-02-27T06:35:33.372Z,-3.30
2023-02-27T06:38:00.168Z,-3.30
2023-02-27T06:40:26.903Z,-3.30
2023-02-27T06:42:56.217Z,-3.40
2023-02-27T06:45:24.288Z,-3.20
2023-02-27T06:47:51.092Z,-3.10
2023-02-27T06:50:17.894Z,-3.10
2023-02-27T06:52:44.560Z,-3.00
2023-02-27T06:55:19.967Z,-2.90
2023-02-27T06:57:49.805Z,-2.80
2023-02-27T07:00:17.813Z,-2.70
2023-02-27T07:02:47.881Z,-2.50
2023-02-27T07:05:14.544Z,-2.20
2023-02-27T07:07:41.294Z,-1.70
2023-02-27T07:10:11.709Z,-1.30
2023-02-27T07:12:39.911Z,-0.80
2023-02-27T07:15:07.939Z,-0.40
2023-02-27T07:17:34.713Z,-0.10
2023-02-27T07:20:10.325Z,0.10
2023-02-27T07:22:38.013Z,0.30
2023-02-27T07:25:05.370Z,0.40
2023-02-27T07:27:32.844Z,0.60
2023-02-27T07:30:01.103Z,0.70
2023-02-27T07:32:28.050Z,0.90
2023-02-27T07:34:54.827Z,1.00
2023-02-27T07:37:21.508Z,1.20
2023-02-27T07:39:48.264Z,1.40
2023-02-27T07:42:15.021Z,1.50
2023-02-27T07:44:41.716Z,1.60
2023-02-27T07:47:08.522Z,1.80
2023-02-27T07:49:35.155Z,1.90
2023-02-27T07:52:11.159Z,1.90
2023-02-27T07:54:38.092Z,2.00
2023-02-27T07:57:05.691Z,2.00
2023-02-27T07:59:32.672Z,2.10
2023-02-27T08:01:59.603Z,1.90
2023-02-27T08:04:26.386Z,2.10
2023-02-27T08:06:53.065Z,2.20
2023-02-27T08:09:19.771Z,2.10
2023-02-27T08:11:48.909Z,2.10
2023-02-27T08:14:16.036Z,2.20
2023-02-27T08:16:45.206Z,2.20
2023-02-27T08:19:13.931Z,2.30
2023-02-27T08:21:41.294Z,2.30
2023-02-27T08:24:07.932Z,2.20
2023-02-27T08:26:34.733Z,2.60
2023-02-27T08:29:01.805Z,2.30
2023-02-27T08:31:34.442Z,2.20
2023-02-27T08:34:09.807Z,2.20
2023-02-27T08:36:39.919Z,2.30
2023-02-27T08:39:07.684Z,2.50
2023-02-27T08:41:35.215Z,2.60
2023-02-27T08:44:01.906Z,2.50
2023-02-27T08:46:28.831Z,2.10
2023-02-27T08:48:55.784Z,2.20
2023-02-27T08:51:22.490Z,2.40
2023-02-27T08:53:49.190Z,2.10
2023-02-27T08:56:16.122Z,2.00
2023-02-27T08:58:42.810Z,2.10
2023-02-27T09:01:11.701Z,2.00
2023-02-27T09:03:38.455Z,2.00
2023-02-27T09:06:05.295Z,2.10
2023-02-27T09:08:32.226Z,2.30
2023-02-27T09:10:59.021Z,2.50
2023-02-27T09:13:26.783Z,2.70
2023-02-27T09:15:54.236Z,2.40
2023-02-27T09:18:23.907Z,2.50
2023-02-27T09:20:51.852Z,2.20
2023-02-27T09:23:19.162Z,2.10
2023-02-27T09:25:47.394Z,2.10
2023-02-27T09:28:14.574Z,2.30
2023-02-27T09:30:41.206Z,2.70
2023-02-27T09:33:08.174Z,2.70
2023-02-27T09:35:34.867Z,2.50
2023-02-27T09:38:01.621Z,2.70
2023-02-27T09:40:31.515Z,3.20
2023-02-27T09:43:08.514Z,3.00
2023-02-27T09:45:39.224Z,3.00
2023-02-27T09:48:15.703Z,3.30
2023-02-27T09:50:45.520Z,3.40
2023-02-27T09:53:31.386Z,3.40
2023-02-27T09:56:10.966Z,3.80
2023-02-27T09:58:59.377Z,4.20
2023-02-27T10:01:29.690Z,4.40
2023-02-27T10:04:11.903Z,4.10
2023-02-27T10:06:51.067Z,3.70
2023-02-27T10:09:36.545Z,3.80
2023-02-27T10:12:16.272Z,4.00
2023-02-27T10:14:50.337Z,4.50
2023-02-27T10:17:31.478Z,4.70
2023-02-27T10:20:01.609Z,5.10
2023-02-27T10:22:35.156Z,5.40
2023-02-27T10:25:30.846Z,5.30
2023-02-27T10:28:09.252Z,5.20
2023-02-27T10:30:36.408Z,4.80
2023-02-27T10:33:27.333Z,4.80
2023-02-27T10:35:55.113Z,5.10
2023-02-27T10:38:32.655Z,5.20
2023-02-27T10:41:01.709Z,5.00
2023-02-27T10:43:28.634Z,5.40
2023-02-27T10:45:55.437Z,5.20
2023-02-27T10:48:23.114Z,5.20
2023-02-27T10:50:53.951Z,5.20
2023-02-27T10:53:28.414Z,5.40
2023-02-27T10:56:07.865Z,5.20
2023-02-27T10:58:36.871Z,4.90
2023-02-27T11:01:07.029Z,5.30
2023-02-27T11:03:42.682Z,5.50
2023-02-27T11:06:29.830Z,5.70
2023-02-27T11:09:11.003Z,6.20
2023-02-27T11:11:38.033Z,6.60
2023-02-27T11:14:28.064Z,6.40
2023-02-27T11:17:00.130Z,6.20
2023-02-27T11:19:31.246Z,6.40
2023-02-27T11:22:20.200Z,6.80
2023-02-27T11:24:47.892Z,6.30
2023-02-27T11:27:21.955Z,6.60
2023-02-27T11:30:27.167Z,7.20
2023-02-27T11:32:57.017Z,7.60
2023-02-27T11:35:36.938Z,7.40
2023-02-27T11:38:07.665Z,7.00
2023-02-27T11:40:39.352Z,7.00
2023-02-27T11:43:25.873Z,7.00
2023-02-27T11:46:32.366Z,6.90
2023-02-27T11:48:58.656Z,6.90
2023-02-27T11:51:39.895Z,7.30
2023-02-27T11:54:16.685Z,7.20
2023-02-27T11:56:53.762Z,7.40
2023-02-27T11:59:47.900Z,7.20
2023-02-27T12:02:25.045Z,6.80
2023-02-27T12:05:09.527Z,6.20
2023-02-27T12:07:44.552Z,5.70
2023-02-27T12:10:37.447Z,5.30
2023-02-27T12:13:30.146Z,5.50
2023-02-27T12:16:16.542Z,6.00
2023-02-27T12:18:49.720Z,5.60
2023-02-27T12:21:41.423Z,4.80
2023-02-27T12:24:18.038Z,4.20
2023-02-27T12:26:49.840Z,4.90
2023-02-27T12:29:49.327Z,5.40
2023-02-27T12:32:43.713Z,6.20
2023-02-27T12:35:19.962Z,6.90
2023-02-27T12:37:46.783Z,6.90
2023-02-27T12:40:19.208Z,5.70
2023-02-27T12:43:11.341Z,4.90
2023-02-27T12:46:20.309Z,4.90
2023-02-27T12:49:09.084Z,4.90
2023-02-27T12:51:51.115Z,4.90
2023-02-27T12:54:46.695Z,5.20
2023-02-27T12:57:37.375Z,5.90
2023-02-27T13:00:20.100Z,6.90
2023-02-27T13:03:03.900Z,7.00
2023-02-27T13:05:33.425Z,7.10
2023-02-27T13:08:23.292Z,6.60
2023-02-27T13:11:14.222Z,7.00
2023-02-27T13:14:16.206Z,6.90
2023-02-27T13:16:46.584Z,6.80
2023-02-27T13:19:48.761Z,6.80
2023-02-27T13:22:32.694Z,7.60
2023-02-27T13:25:03.324Z,7.90
2023-02-27T13:27:38.774Z,8.50
2023-02-27T13:30:30.180Z,9.00
2023-02-27T13:32:59.986Z,8.40
2023-02-27T13:35:58.331Z,7.50
2023-02-27T13:38:43.863Z,7.50
2023-02-27T13:41:30.155Z,7.60
2023-02-27T13:43:58.478Z,7.70
2023-02-27T13:46:27.165Z,7.00
2023-02-27T13:49:06.020Z,7.20
2023-02-27T13:51:35.663Z,7.50
2023-02-27T13:54:14.420Z,8.50
2023-02-27T13:56:46.663Z,8.80
2023-02-27T13:59:28.886Z,8.80
2023-02-27T14:02:10.625Z,8.90
2023-02-27T14:04:46.893Z,8.40
2023-02-27T14:07:21.299Z,8.40
2023-02-27T14:09:51.603Z,8.90
2023-02-27T14:12:44.379Z,9.40
2023-02-27T14:15:18.350Z,8.90
2023-02-27T14:17:47.694Z,9.10
2023-02-27T14:20:17.890Z,8.80
2023-02-27T14:23:10.215Z,8.40
2023-02-27T14:25:40.927Z,7.90
2023-02-27T14:28:27.945Z,7.20
2023-02-27T14:31:08.676Z,6.30
2023-02-27T14:33:46.293Z,5.90
2023-02-27T14:36:20.410Z,5.50
2023-02-27T14:38:48.275Z,5.10
2023-02-27T14:41:44.940Z,5.00
2023-02-27T14:44:23.485Z,4.80
2023-02-27T14:46:52.748Z,5.10
2023-02-27T14:49:25.039Z,6.00
2023-02-27T14:51:53.069Z,7.00
2023-02-27T14:54:25.919Z,6.70
2023-02-27T14:57:05.961Z,6.30
2023-02-27T14:59:54.283Z,6.00
2023-02-27T15:02:28.294Z,6.20
2023-02-27T15:05:01.082Z,6.20
2023-02-27T15:07:32.955Z,6.60
2023-02-27T15:10:04.479Z,6.80
2023-02-27T15:12:36.281Z,6.50
2023-02-27T15:15:08.089Z,6.10
2023-02-27T15:17:40.974Z,5.80
2023-02-27T15:20:30.867Z,5.60
2023-02-27T15:23:19.364Z,5.50
2023-02-27T15:25:46.148Z,5.60
2023-02-27T15:28:22.865Z,6.10
2023-02-27T15:30:51.359Z,5.80
2023-02-27T15:33:18.679Z,5.20
2023-02-27T15:35:46.554Z,4.80
2023-02-27T15:38:29.781Z,4.70
2023-02-27T15:40:58.335Z,4.60
2023-02-27T15:43:26.795Z,4.50
2023-02-27T15:45:54.195Z,4.40
2023-02-27T15:48:21.610Z,4.30
2023-02-27T15:50:58.599Z,4.10
2023-02-27T15:53:27.330Z,4.10
2023-02-27T15:56:13.188Z,4.00
2023-02-27T15:58:53.894Z,4.00
2023-02-27T16:01:22.801Z,4.00
2023-02-27T16:03:52.610Z,4.00
2023-02-27T16:06:26.867Z,4.00
2023-02-27T16:09:02.711Z,3.90
2023-02-27T16:11:35.560Z,4.00
2023-02-27T16:14:03.354Z,3.90
2023-02-27T16:16:37.474Z,3.90
2023-02-27T16:19:26.834Z,3.90
2023-02-27T16:22:14.637Z,3.80
2023-02-27T16:24:41.796Z,3.70
2023-02-27T16:27:16.872Z,3.70
2023-02-27T16:29:45.387Z,3.60
2023-02-27T16:32:28.089Z,3.60
2023-02-27T16:35:16.635Z,3.50
2023-02-27T16:37:44.914Z,3.50
2023-02-27T16:40:14.322Z,3.50
2023-02-27T16:42:41.354Z,3.40
2023-02-27T16:45:17.609Z,3.40
2023-02-27T16:47:44.889Z,3.40
2023-02-27T16:50:40.979Z,3.40
2023-02-27T16:53:08.113Z,3.30
2023-02-27T16:55:40.980Z,3.30
2023-02-27T16:58:09.633Z,3.20
2023-02-27T17:00:36.322Z,3.20
2023-02-27T17:03:03.139Z,3.10
2023-02-27T17:05:29.855Z,3.00
2023-02-27T17:07:56.497Z,3.00
2023-02-27T17:10:25.612Z,2.90
2023-02-27T17:12:52.806Z,2.80
2023-02-27T17:15:20.281Z,2.70
2023-02-27T17:17:46.982Z,2.70
2023-02-27T17:20:19.595Z,2.70
2023-02-27T17:22:46.296Z,2.60
2023-02-27T17:25:13.754Z,2.60
2023-02-27T17:27:43.206Z,2.50
2023-02-27T17:30:12.085Z,2.40
2023-02-27T17:32:38.889Z,2.30
2023-02-27T17:35:05.894Z,2.30
2023-02-27T17:37:32.659Z,2.30
2023-02-27T17:39:59.477Z,2.40
2023-02-27T17:42:26.382Z,2.40
2023-02-27T17:44:53.063Z,2.40
2023-02-27T17:47:20.668Z,2.40
2023-02-27T17:49:47.663Z,2.30
2023-02-27T17:52:15.514Z,2.20
2023-02-27T17:54:43.547Z,2.10
2023-02-27T17:57:13.284Z,1.90
2023-02-27T17:59:41.707Z,1.80
2023-02-27T18:02:11.168Z,1.80
2023-02-27T18:04:38.352Z,1.90
2023-02-27T18:07:05.515Z,1.90
2023-02-27T18:09:32.670Z,1.90
2023-02-27T18:11:59.372Z,2.00
2023-02-27T18:14:26.228Z,1.90
2023-02-27T18:16:53.076Z,1.90
2023-02-27T18:19:19.742Z,1.80
2023-02-27T18:21:47.156Z,1.80
2023-02-27T18:24:15.786Z,1.80
2023-02-27T18:26:42.985Z,1.70
2023-02-27T18:29:13.914Z,1.70
2023-02-27T18:31:53.624Z,1.70
2023-02-27T18:34:21.113Z,1.60
2023-02-27T18:36:48.146Z,1.60
2023-02-27T18:39:14.869Z,1.50
2023-02-27T18:41:44.559Z,1.30
2023-02-27T18:44:11.493Z,1.10
2023-02-27T18:46:39.071Z,1.00
2023-02-27T18:49:05.969Z,0.90
2023-02-27T18:51:32.663Z,0.90
2023-02-27T18:54:00.794Z,0.90
2023-02-27T18:56:30.354Z,1.00
2023-02-27T18:59:05.156Z,1.00
2023-02-27T19:01:35.285Z,1.00
2023-02-27T19:04:04.717Z,0.90
2023-02-27T19:06:33.872Z,0.80
2023-02-27T19:09:00.916Z,0.70
2023-02-27T19:11:40.126Z,0.60
2023-02-27T19:14:10.598Z,0.50
2023-02-27T19:16:37.328Z,0.40
2023-02-27T19:19:07.515Z,0.40
2023-02-27T19:21:35.136Z,0.40
2023-02-27T19:24:02.404Z,0.30
2023-02-27T19:26:29.824Z,0.10
2023-02-27T19:28:56.642Z,-0.10
2023-02-27T19:31:24.753Z,-0.30
2023-02-27T19:33:52.163Z,-0.40
2023-02-27T19:36:20.955Z,-0.60
2023-02-27T19:38:47.792Z,-0.70
2023-02-27T19:41:16.837Z,-0.70
2023-02-27T19:43:45.953Z,-0.90
2023-02-27T19:46:15.568Z,-1.10
2023-02-27T19:48:43.174Z,-1.20
2023-02-27T19:51:12.190Z,-1.20
2023-02-27T19:53:40.964Z,-1.20
2023-02-27T19:56:11.443Z,-1.20
2023-02-27T19:58:39.366Z,-1.30
2023-02-27T20:01:07.017Z,-1.20
2023-02-27T20:03:35.072Z,-1.20
2023-02-27T20:06:06.149Z,-1.10
2023-02-27T20:08:33.970Z,-1.00
2023-02-27T20:11:02.941Z,-1.00
2023-02-27T20:13:30.214Z,-1.00
2023-02-27T20:15:58.501Z,-1.00
2023-02-27T20:18:27.525Z,-0.90
2023-02-27T20:21:03.266Z,-0.80
2023-02-27T20:23:30.907Z,-0.70
2023-02-27T20:25:57.626Z,-0.60
2023-02-27T20:28:24.345Z,-0.60
2023-02-27T20:30:51.243Z,-0.50
2023-02-27T20:33:17.925Z,-0.40
2023-02-27T20:35:45.089Z,-0.40
2023-02-27T20:38:12.351Z,-0.40
2023-02-27T20:40:38.982Z,-0.40
2023-02-27T20:43:05.667Z,-0.30
2023-02-27T20:45:32.403Z,-0.40
2023-02-27T20:47:59.130Z,-0.40
2023-02-27T20:50:25.879Z,-0.40
2023-02-27T20:52:58.431Z,-0.40
2023-02-27T20:55:25.153Z,-0.30
2023-02-27T20:57:51.833Z,-0.30
2023-02-27T21:00:19.203Z,-0.30
2023-02-27T21:02:46.031Z,-0.30
2023-02-27T21:05:16.949Z,-0.30
2023-02-27T21:07:44.814Z,-0.30
2023-02-27T21:10:12.559Z,-0.30
2023-02-27T21:12:39.843Z,-0.30
2023-02-27T21:15:07.040Z,-0.40
2023-02-27T21:17:36.868Z,-0.50
2023-02-27T21:20:08.388Z,-0.50
2023-02-27T21:22:41.134Z,-0.50
2023-02-27T21:25:08.173Z,-0.50
2023-02-27T21:27:37.515Z,-0.50
2023-02-27T21:30:10.975Z,-0.40
2023-02-27T21:32:37.743Z,-0.40
2023-02-27T21:35:04.705Z,-0.50
2023-02-27T21:37:31.550Z,-0.50
2023-02-27T21:40:00.426Z,-0.50
2023-02-27T21:42:27.777Z,-0.50
2023-02-27T21:44:54.438Z,-0.60
2023-02-27T21:47:21.198Z,-0.60
2023-02-27T21:49:47.884Z,-0.70
2023-02-27T21:52:14.738Z,-0.70
2023-02-27T21:54:41.475Z,-0.80
2023-02-27T21:57:09.906Z,-0.70
2023-02-27T21:59:36.795Z,-0.80
2023-02-27T22:02:03.599Z,-0.80
2023-02-27T22:04:30.578Z,-0.90
2023-02-27T22:06:57.339Z,-0.90
2023-02-27T22:09:24.104Z,-1.00
2023-02-27T22:11:50.873Z,-1.10
2023-02-27T22:14:17.643Z,-1.20
2023-02-27T22:16:47.415Z,-1.20
2023-02-27T22:19:22.010Z,-1.20
2023-02-27T22:21:48.683Z,-1.20
2023-02-27T22:24:16.540Z,-1.20
2023-02-27T22:26:44.494Z,-1.10
2023-02-27T22:29:11.556Z,-1.00
2023-02-27T22:31:38.679Z,-1.00
2023-02-27T22:34:10.126Z,-1.10
2023-02-27T22:36:41.746Z,-1.10
2023-02-27T22:39:08.465Z,-1.10
2023-02-27T22:41:37.839Z,-1.10
2023-02-27T22:44:05.152Z,-1.10
2023-02-27T22:46:37.968Z,-1.20
2023-02-27T22:49:08.313Z,-1.20
2023-02-27T22:51:35.673Z,-1.30
2023-02-27T22:54:04.083Z,-1.40
2023-02-27T22:56:31.896Z,-1.50
2023-02-27T22:58:59.184Z,-1.50
2023-02-27T23:01:28.836Z,-1.50
2023-02-27T23:03:58.487Z,-1.50
2023-02-27T23:06:29.113Z,-1.60
2023-02-27T23:08:56.016Z,-1.60
2023-02-27T23:11:23.230Z,-1.60
2023-02-27T23:13:50.297Z,-1.70
2023-02-27T23:16:17.570Z,-1.70
2023-02-27T23:18:49.985Z,-1.70
2023-02-27T23:21:18.994Z,-1.70
2023-02-27T23:23:47.975Z,-1.70
2023-02-27T23:26:15.147Z,-1.70
2023-02-27T23:28:42.677Z,-1.80
2023-02-27T23:31:09.806Z,-1.80
2023-02-27T23:33:36.798Z,-2.00
2023-02-27T23:36:04.424Z,-2.10
2023-02-27T23:38:31.092Z,-2.10
2023-02-27T23:40:58.038Z,-2.10
2023-02-27T23:43:24.894Z,-2.20
2023-02-27T23:45:51.587Z,-2.40
2023-02-27T23:48:18.718Z,-2.50
2023-02-27T23:50:45.504Z,-2.50
2023-02-27T23:53:15.994Z,-2.50
2023-02-27T23:55:43.800Z,-2.40
2023-02-27T23:58:11.176Z,-2.40
